createdAt,value
2022-11-16T00:04:18.529Z,9.90
2022-11-16T00:09:26.984Z,10.73
2022-11-16T00:14:30.142Z,9.65
2022-11-16T00:19:32.751Z,11.20
2022-11-16T00:24:36.466Z,10.87
2022-11-16T00:29:38.865Z,10.55
2022-11-16T00:34:41.261Z,11.70
2022-11-16T00:39:45.009Z,11.27
2022-11-16T00:44:47.607Z,10.90
2022-11-16T00:49:49.996Z,11.10
2022-11-16T00:54:53.713Z,11.13
2022-11-16T00:59:56.099Z,11.48
2022-11-16T01:04:58.640Z,10.10
2022-11-16T01:10:02.370Z,12.07
2022-11-16T01:15:05.389Z,11.52
2022-11-16T01:20:10.246Z,12.48
2022-11-16T01:25:14.621Z,11.88
2022-11-16T01:30:17.503Z,13.23
2022-11-16T01:35:19.928Z,11.43
2022-11-16T01:40:23.698Z,12.18
2022-11-16T01:45:34.977Z,12.57
2022-11-16T01:50:38.028Z,12.85
2022-11-16T01:55:43.313Z,13.18
2022-11-16T02:00:45.777Z,14.45
2022-11-16T02:05:54.838Z,15.87
2022-11-16T02:11:17.476Z,13.77
2022-11-16T02:16:23.815Z,14.35
2022-11-16T02:21:32.587Z,14.63
2022-11-16T02:26:48.953Z,14.27
2022-11-16T02:31:55.395Z,14.82
2022-11-16T02:36:59.148Z,15.32
2022-11-16T02:42:02.411Z,18.48
2022-11-16T02:47:07.898Z,18.83
2022-11-16T02:52:11.626Z,17.70
2022-11-16T02:57:34.860Z,18.00
2022-11-16T03:02:42.615Z,16.02
2022-11-16T03:07:47.406Z,17.35
2022-11-16T03:12:50.002Z,18.85
2022-11-16T03:17:54.589Z,15.43
2022-11-16T03:22:58.510Z,17.30
2022-11-16T03:28:03.596Z,19.27
2022-11-16T03:33:10.533Z,19.17
2022-11-16T03:38:13.968Z,18.48
2022-11-16T03:48:20.077Z,18.52
2022-11-16T03:53:22.442Z,20.95
2022-11-16T03:58:24.822Z,19.30
2022-11-16T04:03:28.551Z,21.63
2022-11-16T04:08:48.952Z,21.42
2022-11-16T04:14:21.188Z,21.27
2022-11-16T04:19:42.475Z,21.45
2022-11-16T04:24:46.336Z,19.27
2022-11-16T04:29:49.122Z,21.70
2022-11-16T04:35:10.540Z,22.52
2022-11-16T04:40:13.349Z,23.85
2022-11-16T04:45:33.440Z,23.15
2022-11-16T04:50:37.649Z,23.67
2022-11-16T04:55:40.306Z,25.20
2022-11-16T05:00:42.696Z,25.43
2022-11-16T05:05:46.422Z,25.05
2022-11-16T05:10:51.474Z,25.98
2022-11-16T05:15:55.154Z,26.10
2022-11-16T05:21:01.784Z,27.05
2022-11-16T05:26:04.233Z,21.58
2022-11-16T05:31:07.337Z,23.17
2022-11-16T05:36:12.764Z,24.77
2022-11-16T05:41:15.174Z,22.45
2022-11-16T05:46:18.849Z,21.33
2022-11-16T05:51:22.575Z,22.48
2022-11-16T05:56:25.022Z,22.05
2022-11-16T06:01:27.492Z,20.37
2022-11-16T06:06:31.230Z,21.13
2022-11-16T06:11:35.977Z,20.00
2022-11-16T06:16:38.770Z,17.83
2022-11-16T06:21:42.494Z,18.13
2022-11-16T06:26:45.947Z,16.75
2022-11-16T06:36:51.992Z,9.52
2022-11-16T06:41:54.416Z,7.68
2022-11-16T06:46:56.802Z,7.40
2022-11-16T06:52:00.602Z,8.15
2022-11-16T06:57:03.043Z,8.70
2022-11-16T07:02:05.563Z,9.05
2022-11-16T07:07:09.436Z,8.88
2022-11-16T07:12:12.189Z,8.65
2022-11-16T07:17:14.600Z,8.87
2022-11-16T07:22:19.937Z,7.05
2022-11-16T07:27:22.333Z,7.57
2022-11-16T07:32:24.757Z,7.20
2022-11-16T07:37:28.465Z,5.85
2022-11-16T07:42:30.918Z,5.43
2022-11-16T07:47:36.053Z,5.00
2022-11-16T07:52:39.847Z,5.90
2022-11-16T07:57:42.284Z,7.22
2022-11-16T08:02:44.681Z,12.80
2022-11-16T08:07:48.590Z,17.47
2022-11-16T08:12:50.985Z,18.25
2022-11-16T08:17:53.444Z,13.43
2022-11-16T08:23:01.749Z,8.20
2022-11-16T08:28:04.185Z,6.40
2022-11-16T08:33:07.877Z,4.50
2022-11-16T08:38:11.633Z,3.20
2022-11-16T08:43:14.087Z,2.97
2022-11-16T08:48:16.854Z,2.58
2022-11-16T08:53:20.617Z,2.63
2022-11-16T08:58:23.202Z,2.67
2022-11-16T09:03:25.683Z,3.35
2022-11-16T09:08:29.535Z,2.70
2022-11-16T09:13:32.127Z,2.63
2022-11-16T09:18:34.996Z,3.75
2022-11-16T09:28:41.512Z,3.78
2022-11-16T09:33:47.109Z,3.65
2022-11-16T09:44:19.408Z,4.15
2022-11-16T09:49:23.571Z,5.00
2022-11-16T09:54:28.587Z,4.88
2022-11-16T09:59:35.120Z,4.88
2022-11-16T10:04:39.189Z,5.22
2022-11-16T10:09:41.822Z,4.70
2022-11-16T10:14:54.345Z,4.47
2022-11-16T10:19:57.920Z,4.07
2022-11-16T10:25:01.349Z,4.35
2022-11-16T10:30:10.353Z,3.28
2022-11-16T10:35:16.644Z,3.63
2022-11-16T10:40:21.257Z,2.72
2022-11-16T10:45:26.850Z,3.22
2022-11-16T10:50:34.109Z,3.38
2022-11-16T10:55:36.510Z,2.78
2022-11-16T11:00:42.110Z,2.20
2022-11-16T11:05:49.098Z,3.03
2022-11-16T11:10:58.470Z,2.88
2022-11-16T11:16:16.522Z,2.33
2022-11-16T11:21:20.095Z,2.30
2022-11-16T11:26:36.475Z,2.33
2022-11-16T11:31:43.715Z,2.60
2022-11-16T11:36:47.731Z,2.72
2022-11-16T11:42:01.444Z,2.90
2022-11-16T11:52:33.105Z,2.92
2022-11-16T11:57:37.845Z,2.10
2022-11-16T12:02:46.219Z,2.45
2022-11-16T12:08:05.225Z,2.67
2022-11-16T12:13:18.271Z,1.92
2022-11-16T12:18:33.565Z,3.03
2022-11-16T12:23:43.641Z,2.33
2022-11-16T12:28:52.421Z,2.05
2022-11-16T12:33:58.371Z,2.78
2022-11-16T12:39:08.787Z,2.13
2022-11-16T12:44:12.113Z,1.80
2022-11-16T12:49:29.064Z,2.17
2022-11-16T12:54:52.459Z,2.20
2022-11-16T13:00:08.298Z,1.50
2022-11-16T13:05:14.827Z,1.70
2022-11-16T13:10:19.658Z,1.98
2022-11-16T13:15:23.047Z,1.77
2022-11-16T13:20:36.599Z,1.60
2022-11-16T13:25:43.350Z,1.90
2022-11-16T13:30:51.449Z,1.50
2022-11-16T13:35:53.961Z,1.60
2022-11-16T13:41:17.643Z,1.60
2022-11-16T13:46:53.589Z,2.17
2022-11-16T13:51:51.387Z,2.17
2022-11-16T13:56:53.871Z,1.52
2022-11-16T14:01:58.964Z,1.43
2022-11-16T14:07:01.539Z,1.58
2022-11-16T14:12:18.874Z,1.75
2022-11-16T14:17:36.161Z,1.85
2022-11-16T14:22:55.769Z,3.20
2022-11-16T14:28:02.562Z,2.75
2022-11-16T14:33:05.032Z,3.15
2022-11-16T14:38:17.456Z,2.07
2022-11-16T14:43:22.880Z,2.15
2022-11-16T14:48:26.813Z,2.38
2022-11-16T14:53:31.223Z,4.63
2022-11-16T14:58:33.632Z,4.13
2022-11-16T15:03:38.052Z,2.55
2022-11-16T15:08:45.605Z,2.60
2022-11-16T15:13:48.222Z,2.72
2022-11-16T15:18:57.196Z,2.37
2022-11-16T15:24:23.897Z,2.78
2022-11-16T15:29:25.261Z,3.25
2022-11-16T15:34:27.817Z,3.65
2022-11-16T15:39:34.439Z,4.47
2022-11-16T15:44:38.835Z,3.40
2022-11-16T15:49:42.071Z,2.72
2022-11-16T15:55:03.504Z,3.80
2022-11-16T16:00:06.279Z,3.50
2022-11-16T16:05:23.801Z,3.37
2022-11-16T16:10:27.990Z,3.88
2022-11-16T16:15:33.943Z,7.03
2022-11-16T16:20:36.830Z,11.32
2022-11-16T16:25:41.444Z,7.35
2022-11-16T16:30:45.279Z,6.78
2022-11-16T16:35:50.947Z,9.48
2022-11-16T16:41:00.225Z,5.32
2022-11-16T16:46:03.517Z,6.43
2022-11-16T16:51:06.118Z,5.22
2022-11-16T16:56:14.313Z,6.77
2022-11-16T17:01:17.124Z,5.18
2022-11-16T17:06:20.438Z,5.13
2022-11-16T17:11:24.708Z,5.15
2022-11-16T17:16:27.435Z,4.45
2022-11-16T17:21:29.868Z,4.93
2022-11-16T17:26:33.656Z,5.53
2022-11-16T17:31:36.264Z,5.75
2022-11-16T17:36:38.741Z,5.27
2022-11-16T17:41:42.576Z,5.43
2022-11-16T17:46:45.012Z,6.13
2022-11-16T17:51:47.477Z,6.03
2022-11-16T17:56:51.346Z,6.20
2022-11-16T18:01:53.767Z,5.75
2022-11-16T18:06:56.260Z,7.75
2022-11-16T18:12:00.106Z,7.28
2022-11-16T18:17:02.629Z,7.00
2022-11-16T18:22:05.120Z,10.07
2022-11-16T18:27:08.899Z,6.72
2022-11-16T18:32:11.310Z,6.68
2022-11-16T18:37:13.638Z,7.07
2022-11-16T18:42:17.307Z,7.45
2022-11-16T18:47:19.988Z,7.20
2022-11-16T18:52:22.506Z,8.80
2022-11-16T18:57:26.289Z,7.70
2022-11-16T19:02:28.700Z,9.75
2022-11-16T19:07:31.251Z,7.85
2022-11-16T19:12:35.058Z,7.20
2022-11-16T19:17:53.139Z,6.80
2022-11-16T19:23:00.036Z,8.93
2022-11-16T19:28:05.504Z,7.17
2022-11-16T19:33:07.902Z,11.48
2022-11-16T19:38:10.379Z,13.50
2022-11-16T19:43:14.270Z,8.50
2022-11-16T19:48:16.754Z,7.80
2022-11-16T19:53:19.217Z,8.43
2022-11-16T19:58:23.056Z,8.57
2022-11-16T20:03:25.417Z,7.57
2022-11-16T20:08:27.842Z,6.95
2022-11-16T20:13:32.186Z,9.18
2022-11-16T20:18:34.854Z,7.25
2022-11-16T20:23:37.756Z,6.88
2022-11-16T20:28:42.483Z,7.70
2022-11-16T20:33:50.703Z,6.47
2022-11-16T20:38:53.745Z,7.07
2022-11-16T20:43:58.458Z,6.65
2022-11-16T20:49:01.810Z,7.00
2022-11-16T20:54:04.425Z,6.97
2022-11-16T20:59:08.349Z,6.50
2022-11-16T21:04:11.019Z,5.82
2022-11-16T21:09:15.488Z,6.80
2022-11-16T21:14:19.678Z,6.45
2022-11-16T21:19:22.237Z,6.93
2022-11-16T21:24:24.855Z,6.40
2022-11-16T21:29:28.659Z,6.67
2022-11-16T21:34:34.642Z,6.07
2022-11-16T21:39:39.743Z,6.07
2022-11-16T21:44:43.564Z,5.93
2022-11-16T21:50:09.808Z,5.22
2022-11-16T21:55:08.919Z,5.32
2022-11-16T22:00:13.563Z,7.30
2022-11-16T22:05:33.891Z,6.45
2022-11-16T22:10:36.677Z,5.50
2022-11-16T22:15:40.410Z,5.47
2022-11-16T22:20:46.877Z,5.68
2022-11-16T22:25:49.318Z,5.65
2022-11-16T22:30:59.501Z,4.97
2022-11-16T22:36:01.934Z,5.63
2022-11-16T22:41:04.360Z,4.68
2022-11-16T22:46:08.183Z,5.93
2022-11-16T22:51:16.153Z,5.15
2022-11-16T22:56:18.566Z,5.47
2022-11-16T23:01:22.374Z,5.25
2022-11-16T23:06:24.788Z,5.45
2022-11-16T23:11:50.022Z,5.28
2022-11-16T23:16:53.776Z,5.07
2022-11-16T23:22:13.803Z,5.60
2022-11-16T23:27:30.131Z,5.18
2022-11-16T23:32:33.894Z,5.15
2022-11-16T23:37:36.499Z,4.95
2022-11-16T23:42:56.588Z,4.87
2022-11-16T23:48:00.313Z,5.25
2022-11-16T23:53:02.897Z,5.20
2022-11-16T23:58:05.508Z,4.77
